Time;durP1;ratioP1;P1;durP2;ratioP2;P2;SDS_P1;SDS_P2;PMS_P1;PMS_P2;Temp;Humidity;BMP_temperature;BMP_pressure;BME280_temperature;BME280_humidity;BME280_pressure;Samples;Min_cycle;Max_cycle;Signal;HPM_P1;HPM_P2
2021/06/08 00:02:51;;;;;;;5.05;4.20;;;;;;;14.93;51.92;101855.03;8017410;28;20507;-68
2021/06/08 00:06:42;;;;;;;5.13;4.20;;;;;;;14.91;52.00;101863.09;8002251;28;20033;-68
2021/06/08 00:10:32;;;;;;;5.65;4.18;;;;;;;14.92;52.01;101858.66;7998753;28;20179;-68
2021/06/08 00:14:23;;;;;;;6.25;4.55;;;;;;;14.91;52.12;101863.09;7999638;28;20396;-68
2021/06/08 00:18:14;;;;;;;6.15;4.45;;;;;;;14.91;52.39;101857.81;8001049;28;20051;-69
2021/06/08 00:22:04;;;;;;;6.30;4.88;;;;;;;14.92;52.52;101848.06;8002134;28;20037;-65
2021/06/08 00:25:55;;;;;;;5.38;4.57;;;;;;;14.92;52.53;101854.19;8003310;28;20630;-69
2021/06/08 00:29:46;;;;;;;9.43;4.50;;;;;;;14.92;52.58;101853.38;8004690;28;20033;-68
2021/06/08 00:33:36;;;;;;;5.60;4.00;;;;;;;14.92;52.67;101853.38;8001835;28;20469;-69
2021/06/08 00:37:27;;;;;;;5.35;3.90;;;;;;;14.90;52.62;101852.59;8005907;28;20120;-67
2021/06/08 00:41:19;;;;;;;6.05;4.50;;;;;;;14.88;52.77;101854.53;7975534;28;20037;-68
2021/06/08 00:45:11;;;;;;;4.65;3.85;;;;;;;14.81;52.64;101846.16;7991664;28;20040;-69
2021/06/08 00:49:02;;;;;;;7.75;4.30;;;;;;;14.81;52.81;101847.00;7993593;28;20029;-67
2021/06/08 00:52:53;;;;;;;4.55;3.95;;;;;;;14.78;52.66;101856.94;8000267;28;20031;-69
2021/06/08 00:56:45;;;;;;;5.43;3.83;;;;;;;14.74;52.87;101850.19;8002778;28;20084;-68
2021/06/08 01:00:36;;;;;;;7.97;4.43;;;;;;;14.70;52.84;101848.69;8008105;28;20044;-69
2021/06/08 01:04:26;;;;;;;4.60;3.83;;;;;;;14.66;52.93;101840.13;8004737;28;20117;-69
2021/06/08 01:08:17;;;;;;;7.50;4.43;;;;;;;14.62;52.71;101838.63;8006495;28;20026;-69
2021/06/08 01:12:08;;;;;;;4.80;4.13;;;;;;;14.53;52.58;101831.31;8008405;28;20035;-69
2021/06/08 01:15:59;;;;;;;6.15;4.85;;;;;;;14.55;52.81;101841.78;8009162;28;20033;-68
2021/06/08 01:19:55;;;;;;;6.50;4.55;;;;;;;14.50;52.66;101841.25;8008882;28;20051;-69
2021/06/08 01:23:45;;;;;;;5.20;3.70;;;;;;;14.45;52.75;101852.13;8009573;28;20486;-67
2021/06/08 01:27:36;;;;;;;5.07;4.20;;;;;;;14.41;52.94;101850.63;8003466;28;20082;-68
2021/06/08 01:31:30;;;;;;;4.78;4.00;;;;;;;14.31;52.92;101834.53;7997578;28;20069;-67
2021/06/08 01:35:21;;;;;;;5.22;4.28;;;;;;;14.33;52.87;101852.94;8001000;28;20429;-69
2021/06/08 01:39:12;;;;;;;6.57;4.70;;;;;;;14.28;52.93;101850.59;8000331;28;20043;-68
2021/06/08 01:43:02;;;;;;;7.50;4.60;;;;;;;14.24;53.06;101850.88;8001863;28;20100;-68
2021/06/08 01:46:53;;;;;;;6.25;5.03;;;;;;;14.22;52.95;101855.41;8003954;28;20032;-69
2021/06/08 01:50:50;;;;;;;8.57;5.35;;;;;;;14.19;53.05;101859.13;8004684;28;20048;-66
2021/06/08 01:54:56;;;;;;;9.73;5.67;;;;;;;14.14;53.19;101863.84;8004799;28;20025;-69
2021/06/08 01:59:00;;;;;;;9.88;5.70;;;;;;;14.08;52.92;101866.06;8006294;28;20056;-69
2021/06/08 02:02:54;;;;;;;8.63;6.20;;;;;;;14.07;53.06;101861.72;8003300;28;20056;-68
2021/06/08 02:07:02;;;;;;;7.40;6.00;;;;;;;14.03;53.19;101855.78;7986437;28;20053;-69
2021/06/08 02:11:06;;;;;;;8.63;6.53;;;;;;;13.99;53.31;101859.56;8009988;28;20570;-67
2021/06/08 02:15:04;;;;;;;7.50;6.38;;;;;;;13.95;53.16;101863.38;8002457;28;20039;-69
2021/06/08 02:18:56;;;;;;;8.45;6.78;;;;;;;13.92;53.21;101861.75;7985769;28;20082;-68
2021/06/08 02:22:53;;;;;;;12.00;6.43;;;;;;;13.89;53.02;101866.38;7997250;28;20063;-68
2021/06/08 02:26:45;;;;;;;8.05;6.22;;;;;;;13.81;53.32;101853.69;7998688;28;20595;-68
2021/06/08 02:30:37;;;;;;;9.02;6.32;;;;;;;13.82;53.10;101859.81;8000645;28;20052;-67
2021/06/08 02:34:28;;;;;;;8.27;6.38;;;;;;;13.78;53.23;101872.38;8001113;28;20030;-68
2021/06/08 02:38:21;;;;;;;6.63;5.43;;;;;;;13.76;53.34;101868.97;8002722;28;20075;-68
2021/06/08 02:42:16;;;;;;;7.20;5.65;;;;;;;13.67;53.24;101856.38;8003743;28;20037;-68
2021/06/08 02:46:09;;;;;;;10.73;5.82;;;;;;;13.69;53.14;101869.44;8009273;28;20031;-67
2021/06/08 02:50:01;;;;;;;7.28;5.80;;;;;;;13.65;53.20;101870.59;7989890;28;20548;-68
2021/06/08 02:53:57;;;;;;;8.35;6.30;;;;;;;13.62;53.18;101865.50;8006092;28;20025;-68
2021/06/08 02:57:50;;;;;;;8.30;6.25;;;;;;;13.59;53.46;101871.00;8008617;28;20028;-67
2021/06/08 03:01:45;;;;;;;7.47;6.32;;;;;;;13.56;53.52;101872.00;8007830;28;20060;-67
2021/06/08 03:05:44;;;;;;;7.65;6.38;;;;;;;13.54;53.47;101871.28;7997776;28;20040;-68
2021/06/08 03:09:53;;;;;;;8.50;6.65;;;;;;;13.51;53.62;101870.59;7995742;28;20355;-68
2021/06/08 03:13:46;;;;;;;8.13;6.18;;;;;;;13.49;53.58;101864.56;7996467;28;20511;-68
2021/06/08 03:17:40;;;;;;;7.45;6.57;;;;;;;13.45;53.84;101867.41;7999799;28;20028;-69
2021/06/08 03:21:36;;;;;;;9.10;6.13;;;;;;;13.46;53.57;101870.88;7993149;28;20041;-69
2021/06/08 03:25:28;;;;;;;7.82;6.70;;;;;;;13.44;53.68;101867.47;7998640;28;20545;-67
2021/06/08 03:29:20;;;;;;;8.85;6.47;;;;;;;13.43;53.70;101873.69;8000908;28;20048;-68
2021/06/08 03:33:12;;;;;;;8.05;6.78;;;;;;;13.39;53.58;101873.03;8000427;28;20029;-68
2021/06/08 03:37:03;;;;;;;8.18;6.13;;;;;;;13.27;53.58;101855.31;8005801;28;20477;-68
2021/06/08 03:40:55;;;;;;;8.45;5.97;;;;;;;13.36;53.85;101870.59;8004121;28;20028;-68
2021/06/08 03:44:46;;;;;;;8.00;6.30;;;;;;;13.35;53.67;101871.53;7988645;28;20028;-69
2021/06/08 03:48:38;;;;;;;11.85;6.00;;;;;;;13.33;53.83;101872.59;8006594;28;20052;-67
2021/06/08 03:52:28;;;;;;;7.50;6.07;;;;;;;13.34;53.79;101880.41;8007888;28;20029;-68
2021/06/08 03:56:20;;;;;;;8.55;5.70;;;;;;;13.33;53.98;101873.44;7993153;28;20175;-67
2021/06/08 04:00:11;;;;;;;6.68;5.63;;;;;;;13.37;54.20;101879.38;8007482;28;20086;-67
2021/06/08 04:04:07;;;;;;;7.00;6.28;;;;;;;13.40;54.23;101880.03;8001047;28;20029;-68
2021/06/08 04:07:57;;;;;;;6.75;5.35;;;;;;;13.44;54.18;101884.16;8006710;28;20977;-67
2021/06/08 04:11:51;;;;;;;7.80;5.72;;;;;;;13.49;54.20;101878.59;8007473;28;20025;-67
2021/06/08 04:15:43;;;;;;;7.72;6.07;;;;;;;13.55;54.35;101880.91;7998258;28;20505;-69
2021/06/08 04:19:34;;;;;;;7.07;5.60;;;;;;;13.63;54.30;101883.06;7995924;28;20472;-68
2021/06/08 04:23:26;;;;;;;7.93;5.38;;;;;;;13.72;54.51;101882.44;8005102;28;20755;-68
2021/06/08 04:27:22;;;;;;;9.35;5.95;;;;;;;13.80;54.64;101878.38;8006456;28;20071;-68
2021/06/08 04:31:13;;;;;;;7.22;5.68;;;;;;;13.78;54.53;101866.22;7996757;28;20091;-68
2021/06/08 04:35:06;;;;;;;8.15;5.35;;;;;;;13.92;54.55;101882.88;7998319;28;20036;-68
2021/06/08 04:38:56;;;;;;;8.98;6.03;;;;;;;13.96;54.52;101875.63;7999251;28;20482;-68
2021/06/08 04:42:49;;;;;;;7.10;5.60;;;;;;;13.99;54.79;101883.34;8000267;28;20041;-68
2021/06/08 04:46:39;;;;;;;8.90;5.93;;;;;;;14.02;54.69;101885.78;8002617;28;20049;-68
2021/06/08 04:50:30;;;;;;;7.65;5.55;;;;;;;14.05;54.67;101890.03;8003645;28;20049;-68
2021/06/08 04:54:25;;;;;;;9.90;5.45;;;;;;;14.06;54.76;101882.00;7999486;28;20041;-67
2021/06/08 04:58:17;;;;;;;7.38;5.00;;;;;;;14.09;54.58;101887.06;7988979;28;20040;-68
2021/06/08 05:02:14;;;;;;;8.52;5.32;;;;;;;14.11;54.63;101889.63;7994406;28;20037;-67
2021/06/08 05:06:08;;;;;;;6.90;5.47;;;;;;;14.16;54.80;101884.91;7998218;28;20114;-68
2021/06/08 05:10:00;;;;;;;6.38;4.95;;;;;;;14.21;54.74;101893.38;7993315;28;20393;-68
2021/06/08 05:13:53;;;;;;;7.05;4.93;;;;;;;14.25;55.01;101895.72;7994710;28;20393;-65
2021/06/08 05:17:45;;;;;;;9.18;4.72;;;;;;;14.33;54.81;101892.56;7995941;28;20412;-68
2021/06/08 05:21:38;;;;;;;6.55;4.15;;;;;;;14.43;54.87;101893.69;7977887;28;20029;-68
2021/06/08 05:25:29;;;;;;;5.93;4.28;;;;;;;14.56;54.89;101888.44;7993036;28;20358;-68
2021/06/08 05:29:22;;;;;;;7.00;4.90;;;;;;;14.79;55.10;101891.22;7998618;28;20480;-68
2021/06/08 05:33:18;;;;;;;8.13;5.43;;;;;;;15.18;55.10;101895.59;7995882;28;20028;-68
2021/06/08 05:37:11;;;;;;;6.22;5.10;;;;;;;15.43;55.00;101894.75;7997608;28;20033;-67
2021/06/08 05:41:07;;;;;;;6.90;4.93;;;;;;;15.58;54.66;101890.19;8008902;28;20110;-67
2021/06/08 05:44:58;;;;;;;5.93;4.80;;;;;;;15.77;54.61;101905.59;8010200;28;20142;-68
2021/06/08 05:48:49;;;;;;;6.63;4.80;;;;;;;16.21;54.61;101897.09;7984740;28;20439;-68
2021/06/08 05:52:39;;;;;;;7.20;5.13;;;;;;;17.10;54.53;101903.56;7972270;28;20571;-68
2021/06/08 05:56:35;;;;;;;8.70;5.28;;;;;;;17.85;53.65;101903.81;7995205;28;20053;-67
2021/06/08 06:00:27;;;;;;;7.82;5.22;;;;;;;18.30;53.28;101899.22;7973533;28;20038;-68
2021/06/08 06:04:18;;;;;;;8.48;5.43;;;;;;;18.87;53.03;101896.19;7969582;28;20524;-68
2021/06/08 06:08:09;;;;;;;5.68;4.47;;;;;;;19.41;52.33;101903.09;7974267;28;20120;-65
2021/06/08 06:12:00;;;;;;;6.20;4.47;;;;;;;19.54;52.16;101906.38;7975093;28;20069;-67
2021/06/08 06:15:52;;;;;;;9.68;5.25;;;;;;;19.52;51.34;101900.31;7970725;28;20490;-66
2021/06/08 06:19:43;;;;;;;11.18;5.55;;;;;;;19.73;51.41;101899.25;7968813;28;20520;-68
2021/06/08 06:23:34;;;;;;;7.78;5.55;;;;;;;20.61;51.36;101899.28;7970516;28;20041;-68
2021/06/08 06:27:26;;;;;;;9.43;5.07;;;;;;;21.63;50.46;101895.75;7971474;28;20029;-67
2021/06/08 06:31:17;;;;;;;6.47;5.22;;;;;;;22.14;49.70;101896.16;7972642;28;20056;-68
2021/06/08 06:35:09;;;;;;;9.00;5.00;;;;;;;21.96;49.02;101896.13;7972873;28;20029;-68
2021/06/08 06:39:04;;;;;;;9.27;5.50;;;;;;;21.67;48.74;101896.28;7971273;28;20034;-68
2021/06/08 06:43:01;;;;;;;6.55;4.82;;;;;;;21.38;48.54;101908.97;7967058;28;20539;-69
2021/06/08 06:46:52;;;;;;;7.32;4.97;;;;;;;20.91;48.67;101884.06;7967361;28;20045;-67
2021/06/08 06:50:45;;;;;;;8.13;5.00;;;;;;;20.74;48.51;101888.31;7967779;28;20028;-67
2021/06/08 06:54:36;;;;;;;8.20;5.45;;;;;;;21.23;48.58;101899.72;7969438;28;20112;-68
2021/06/08 06:58:27;;;;;;;8.00;5.38;;;;;;;22.23;48.23;101905.94;7970007;28;20501;-67
2021/06/08 07:02:22;;;;;;;7.13;5.30;;;;;;;23.00;47.32;101908.78;7968242;28;20057;-68
2021/06/08 07:06:15;;;;;;;11.35;5.70;;;;;;;23.28;46.86;101910.34;7997220;28;20040;-68
2021/06/08 07:10:09;;;;;;;8.98;5.82;;;;;;;23.52;46.30;101908.78;7968272;28;20033;-69
2021/06/08 07:14:00;;;;;;;7.47;5.60;;;;;;;24.08;46.15;101895.53;7969040;28;20475;-69
2021/06/08 07:17:50;;;;;;;8.05;5.78;;;;;;;25.19;45.14;101894.84;7966715;28;20042;-68
2021/06/08 07:21:46;;;;;;;9.52;5.60;;;;;;;26.38;44.20;101897.31;7970146;28;20033;-69
2021/06/08 07:25:38;;;;;;;8.70;5.05;;;;;;;27.42;43.26;101889.22;7971292;28;20045;-70
2021/06/08 07:29:28;;;;;;;8.88;5.90;;;;;;;28.37;42.05;101882.63;7971022;28;20041;-70
2021/06/08 07:33:30;;;;;;;9.07;5.88;;;;;;;29.32;40.74;101898.31;7967412;28;20397;-68
2021/06/08 07:37:23;;;;;;;8.60;5.82;;;;;;;29.98;39.88;101890.47;7968226;28;20051;-70
2021/06/08 07:41:19;;;;;;;9.90;5.97;;;;;;;30.59;38.65;101891.16;7970003;28;20124;-70
2021/06/08 07:45:23;;;;;;;7.55;5.35;;;;;;;30.96;37.80;101890.50;7969993;28;20434;-70
2021/06/08 07:49:15;;;;;;;7.30;5.65;;;;;;;31.24;36.95;101892.16;7967161;28;20112;-68
2021/06/08 07:53:06;;;;;;;7.82;5.78;;;;;;;31.57;36.59;101900.16;7969138;28;20745;-68
2021/06/08 07:56:57;;;;;;;7.85;5.63;;;;;;;32.05;35.49;101903.28;7969402;28;20037;-68
2021/06/08 08:00:50;;;;;;;8.63;5.25;;;;;;;32.56;35.40;101895.81;7968658;28;20246;-70
2021/06/08 08:04:49;;;;;;;7.57;5.03;;;;;;;33.07;34.28;101886.53;7970291;28;20079;-67
2021/06/08 08:08:40;;;;;;;6.75;5.03;;;;;;;33.49;33.57;101896.53;7966551;28;20064;-68
2021/06/08 08:12:41;;;;;;;6.28;5.05;;;;;;;33.89;32.81;101896.03;7969529;28;20047;-70
2021/06/08 08:16:32;;;;;;;9.00;5.20;;;;;;;34.22;32.34;101886.25;7968297;28;20060;-70
2021/06/08 08:20:42;;;;;;;5.38;4.75;;;;;;;34.53;31.96;101892.47;7967092;28;20132;-68
2021/06/08 08:24:34;;;;;;;7.97;4.80;;;;;;;34.15;31.44;101888.25;7964810;28;21409;-69
2021/06/08 08:28:26;;;;;;;6.10;4.85;;;;;;;32.81;32.28;101893.88;7967565;28;20589;-68
2021/06/08 08:32:18;;;;;;;8.82;5.20;;;;;;;31.48;33.58;101886.84;7969803;28;20037;-69
2021/06/08 08:36:09;;;;;;;8.88;5.25;;;;;;;30.35;34.15;101887.19;7969070;28;20775;-69
2021/06/08 08:39:59;;;;;;;6.82;4.90;;;;;;;29.42;34.83;101893.34;7971299;28;20124;-69
2021/06/08 08:43:51;;;;;;;12.60;4.85;;;;;;;28.60;34.96;101895.06;7972853;28;20039;-70
2021/06/08 08:47:44;;;;;;;4.88;3.83;;;;;;;27.87;35.00;101888.13;7965588;28;20037;-69
2021/06/08 08:51:38;;;;;;;6.40;3.95;;;;;;;27.10;35.61;101868.00;7971485;28;20051;-68
2021/06/08 08:55:30;;;;;;;7.82;5.05;;;;;;;26.57;36.06;101873.41;7971308;28;20084;-69
2021/06/08 08:59:21;;;;;;;8.63;4.35;;;;;;;26.15;36.68;101879.28;7963528;28;20068;-69
2021/06/08 09:03:14;;;;;;;6.57;5.00;;;;;;;25.79;36.37;101878.16;7969692;28;20045;-68
2021/06/08 09:07:05;;;;;;;7.10;5.10;;;;;;;25.49;37.09;101882.50;7968831;28;20880;-68
2021/06/08 09:10:58;;;;;;;9.82;5.03;;;;;;;25.25;37.56;101875.34;7969069;28;20087;-68
2021/06/08 09:14:49;;;;;;;7.13;4.65;;;;;;;25.07;37.63;101872.03;7975555;28;20037;-68
2021/06/08 09:18:40;;;;;;;6.50;4.57;;;;;;;24.90;37.73;101862.34;7971243;28;20037;-68
2021/06/08 09:23:05;;;;;;;8.18;5.78;;;;;;;24.70;38.07;101861.00;7973682;28;20048;-68
2021/06/08 09:26:58;;;;;;;7.03;4.32;;;;;;;24.64;37.95;101857.16;7966911;28;20049;-68
2021/06/08 09:31:14;;;;;;;7.80;4.95;;;;;;;24.60;37.48;101871.09;7975354;28;20070;-68
2021/06/08 09:35:05;;;;;;;10.32;5.55;;;;;;;24.54;37.61;101871.78;7972579;28;20037;-68
2021/06/08 09:39:00;;;;;;;5.25;4.07;;;;;;;24.46;37.54;101864.56;7974526;28;20036;-68
2021/06/08 09:43:05;;;;;;;6.07;3.95;;;;;;;24.39;37.54;101860.88;7972208;28;20138;-68
2021/06/08 09:46:59;;;;;;;7.50;4.75;;;;;;;24.39;37.94;101854.66;7973081;28;20049;-68
2021/06/08 09:50:49;;;;;;;8.73;5.18;;;;;;;24.35;37.72;101854.16;7973379;28;20123;-68
2021/06/08 09:54:42;;;;;;;8.75;4.50;;;;;;;24.34;37.78;101850.63;7973008;28;20029;-68
2021/06/08 09:58:35;;;;;;;6.75;3.88;;;;;;;24.18;37.76;101823.75;7971429;28;20041;-68
2021/06/08 10:06:38;;;;;;;6.30;3.88;;;;;;;24.40;37.84;101846.44;7972424;28;20695;-68
2021/06/08 10:10:40;;;;;;;5.47;4.63;;;;;;;24.38;37.87;101843.09;7971558;28;20094;-68
2021/06/08 10:14:38;;;;;;;9.60;4.97;;;;;;;24.36;37.38;101842.44;7972145;28;20037;-68
2021/06/08 10:18:48;;;;;;;6.20;4.55;;;;;;;24.29;37.73;101836.88;7971408;28;21193;-70
2021/06/08 10:22:39;;;;;;;5.88;4.32;;;;;;;24.25;37.71;101840.88;7972666;28;20041;-69
2021/06/08 10:26:33;;;;;;;8.70;5.18;;;;;;;24.18;37.84;101853.28;7973524;28;20041;-67
2021/06/08 10:30:24;;;;;;;7.85;4.50;;;;;;;24.10;38.05;101844.38;7976046;28;20029;-67
2021/06/08 10:34:15;;;;;;;7.25;5.55;;;;;;;23.99;37.74;101842.03;7970978;28;20080;-67
2021/06/08 10:38:11;;;;;;;7.90;5.68;;;;;;;23.87;37.79;101842.34;7972068;28;20031;-67
2021/06/08 10:42:02;;;;;;;7.65;5.40;;;;;;;23.86;37.50;101842.53;7975207;28;20062;-67
2021/06/08 10:45:55;;;;;;;11.07;5.75;;;;;;;23.89;37.78;101836.81;7971842;28;20033;-67
2021/06/08 10:49:46;;;;;;;8.70;6.22;;;;;;;23.91;37.72;101839.34;7974278;28;20037;-67
2021/06/08 10:53:40;;;;;;;8.10;6.68;;;;;;;23.87;37.61;101836.97;7972529;28;20538;-67
2021/06/08 10:57:43;;;;;;;9.85;7.15;;;;;;;23.83;37.63;101832.94;7975271;28;20041;-67
2021/06/08 11:01:34;;;;;;;7.40;6.25;;;;;;;23.79;38.28;101830.75;7972264;28;20555;-67
2021/06/08 11:05:43;;;;;;;10.73;7.25;;;;;;;23.72;37.74;101830.59;7969529;28;20132;-67
2021/06/08 11:09:36;;;;;;;11.25;7.82;;;;;;;23.73;38.09;101828.75;7969834;28;20124;-67
2021/06/08 11:13:26;;;;;;;8.88;7.00;;;;;;;23.79;37.84;101836.97;7969520;28;20559;-67
2021/06/08 11:17:19;;;;;;;8.18;6.90;;;;;;;23.84;38.11;101833.78;7968052;28;20041;-67
2021/06/08 11:21:12;;;;;;;9.70;7.38;;;;;;;23.88;37.99;101832.44;7971620;28;20045;-67
2021/06/08 11:25:04;;;;;;;11.50;8.73;;;;;;;23.89;37.90;101836.81;7971485;28;20065;-67
2021/06/08 11:28:56;;;;;;;13.10;9.40;;;;;;;23.87;37.93;101838.81;7971367;28;20052;-68
2021/06/08 11:32:47;;;;;;;14.68;8.50;;;;;;;23.84;38.43;101834.63;7971141;28;20064;-68
2021/06/08 11:36:40;;;;;;;12.68;9.43;;;;;;;23.87;38.02;101833.44;7974693;28;20048;-68
2021/06/08 11:40:40;;;;;;;12.35;8.57;;;;;;;23.90;38.35;101830.47;7972060;28;20332;-68
2021/06/08 11:44:31;;;;;;;10.35;8.65;;;;;;;23.93;38.02;101827.44;7970452;28;20045;-68
2021/06/08 11:48:31;;;;;;;10.55;8.32;;;;;;;23.96;38.13;101826.25;7969942;28;20043;-67
2021/06/08 11:52:22;;;;;;;10.00;8.52;;;;;;;23.94;37.86;101817.53;7970079;28;20091;-66
2021/06/08 11:56:12;;;;;;;10.50;8.70;;;;;;;23.95;38.04;101819.22;7972486;28;20025;-67
2021/06/08 12:00:06;;;;;;;13.45;8.27;;;;;;;23.97;38.00;101811.84;7968862;28;20033;-67
2021/06/08 12:03:58;;;;;;;11.45;7.47;;;;;;;23.96;38.21;101815.50;7969300;28;20725;-67
2021/06/08 12:07:58;;;;;;;11.23;8.23;;;;;;;23.93;37.75;101813.16;7968672;28;20033;-67
2021/06/08 12:11:50;;;;;;;9.95;8.88;;;;;;;23.83;37.59;101806.09;7969800;28;20651;-67
2021/06/08 12:15:43;;;;;;;14.07;10.73;;;;;;;23.85;37.78;101814.00;7966094;28;20604;-67
2021/06/08 12:19:34;;;;;;;11.40;9.30;;;;;;;23.79;38.01;101815.50;7965350;28;20033;-67
2021/06/08 12:23:29;;;;;;;17.02;11.20;;;;;;;23.75;37.69;101811.47;7966047;28;20037;-67
2021/06/08 12:27:31;;;;;;;14.55;11.02;;;;;;;23.75;38.04;101808.78;7970193;28;20041;-69
2021/06/08 12:31:22;;;;;;;13.02;8.57;;;;;;;23.81;38.22;101807.28;7954881;28;20059;-69
2021/06/08 12:35:22;;;;;;;13.65;11.02;;;;;;;23.85;37.69;101811.31;7996419;28;20544;-68
2021/06/08 12:39:16;;;;;;;17.95;12.65;;;;;;;23.84;37.76;101810.47;7972150;28;20877;-70
2021/06/08 12:43:07;;;;;;;14.75;10.77;;;;;;;23.75;37.81;101797.22;7971709;28;20026;-69
2021/06/08 12:47:01;;;;;;;13.07;10.38;;;;;;;23.83;37.76;101800.75;7975177;28;20054;-68
2021/06/08 12:50:53;;;;;;;15.27;11.73;;;;;;;23.86;37.91;101804.97;7973750;28;20041;-69
2021/06/08 12:54:46;;;;;;;12.52;9.48;;;;;;;23.91;38.06;101796.41;7975443;28;20040;-68
2021/06/08 12:58:37;;;;;;;11.82;9.98;;;;;;;23.92;37.46;101781.97;7955493;28;20029;-68
2021/06/08 13:02:29;;;;;;;11.27;9.57;;;;;;;23.98;37.67;101786.69;7974840;28;20767;-69
2021/06/08 13:06:22;;;;;;;18.88;11.82;;;;;;;23.97;37.84;101787.69;7974052;28;20124;-69
2021/06/08 13:10:19;;;;;;;15.70;11.90;;;;;;;23.93;37.80;101784.50;7974810;28;20041;-69
2021/06/08 13:14:10;;;;;;;15.52;13.10;;;;;;;23.87;37.73;101779.78;7976950;28;20139;-69
2021/06/08 13:18:12;;;;;;;18.50;14.30;;;;;;;23.76;37.28;101780.13;7974012;28;20045;-69
2021/06/08 13:22:19;;;;;;;14.80;12.25;;;;;;;23.68;36.90;101772.03;7986199;28;20673;-71
2021/06/08 13:26:12;;;;;;;13.40;10.18;;;;;;;23.68;37.50;101783.59;7975306;28;20557;-69
2021/06/08 13:30:03;;;;;;;11.35;10.20;;;;;;;23.73;37.40;101777.78;7974580;28;20037;-70
2021/06/08 13:33:54;;;;;;;15.60;11.93;;;;;;;23.77;37.30;101779.13;7971048;28;20114;-68
2021/06/08 13:37:56;;;;;;;15.40;11.88;;;;;;;23.77;37.13;101763.03;7975361;28;20033;-70
2021/06/08 13:41:50;;;;;;;14.18;10.63;;;;;;;23.84;37.41;101772.06;7988174;28;20767;-70
2021/06/08 13:45:42;;;;;;;17.40;12.75;;;;;;;23.87;37.08;101771.72;7989730;28;20041;-70
2021/06/08 13:49:44;;;;;;;19.98;13.95;;;;;;;23.84;37.04;101772.91;7990297;28;20041;-69
2021/06/08 13:53:35;;;;;;;15.43;11.63;;;;;;;23.79;37.02;101764.53;7989206;28;20040;-68
2021/06/08 13:57:31;;;;;;;13.35;10.88;;;;;;;23.75;37.29;101754.28;7970344;28;20036;-68
2021/06/08 14:01:23;;;;;;;13.30;9.68;;;;;;;23.66;37.21;101748.03;7985757;28;20469;-68
2021/06/08 14:05:30;;;;;;;13.32;11.07;;;;;;;23.65;36.78;101754.44;7983695;28;20037;-68
2021/06/08 14:09:23;;;;;;;15.95;12.20;;;;;;;23.64;37.18;101749.22;7987723;28;20128;-69
2021/06/08 14:13:14;;;;;;;15.23;12.18;;;;;;;23.59;37.27;101757.75;7992807;28;20033;-68
2021/06/08 14:17:13;;;;;;;18.27;13.00;;;;;;;23.56;37.08;101744.69;7985839;28;20035;-69
2021/06/08 14:21:04;;;;;;;18.60;13.98;;;;;;;23.57;36.89;101740.16;7968222;28;20829;-68
2021/06/08 14:24:55;;;;;;;18.60;13.02;;;;;;;23.58;36.70;101733.78;7986759;28;20037;-69
2021/06/08 14:28:45;;;;;;;13.45;10.55;;;;;;;23.61;37.04;101742.34;7989584;28;20555;-69
2021/06/08 14:32:37;;;;;;;12.70;10.30;;;;;;;23.67;36.73;101735.47;7972371;28;20785;-67
2021/06/08 14:36:31;;;;;;;13.35;10.27;;;;;;;23.74;37.53;101733.84;7968486;28;20429;-67
2021/06/08 14:40:21;;;;;;;12.20;10.52;;;;;;;23.81;37.18;101727.66;7968768;28;20048;-68
2021/06/08 14:44:12;;;;;;;13.70;11.07;;;;;;;23.85;36.77;101720.94;7971904;28;20029;-68
2021/06/08 14:48:03;;;;;;;13.75;10.77;;;;;;;23.89;36.76;101714.22;7970426;28;20045;-67
2021/06/08 14:51:53;;;;;;;12.00;9.98;;;;;;;23.95;36.73;101722.63;7971742;28;20448;-68
2021/06/08 14:55:47;;;;;;;12.30;10.23;;;;;;;23.99;36.74;101716.72;7975902;28;20563;-68
2021/06/08 14:59:38;;;;;;;13.02;11.10;;;;;;;24.03;36.56;101712.69;7972500;28;20041;-68
2021/06/08 15:03:29;;;;;;;15.00;11.20;;;;;;;24.06;36.53;101708.84;7954524;28;20033;-69
2021/06/08 15:07:19;;;;;;;16.88;11.43;;;;;;;24.04;36.38;101708.16;7972851;28;20115;-68
2021/06/08 15:11:10;;;;;;;12.35;10.10;;;;;;;24.00;36.62;101701.47;7973543;28;20029;-69
2021/06/08 15:15:04;;;;;;;13.88;11.10;;;;;;;23.98;36.74;101701.66;7973124;28;20574;-68
2021/06/08 15:18:56;;;;;;;17.27;10.85;;;;;;;23.95;36.56;101707.34;7968846;28;20026;-68
2021/06/08 15:22:47;;;;;;;19.88;11.90;;;;;;;23.88;36.52;101701.81;7970173;28;20092;-68
2021/06/08 15:26:38;;;;;;;12.90;10.85;;;;;;;23.79;36.60;101699.28;7972368;28;20041;-68
2021/06/08 15:30:29;;;;;;;15.13;10.52;;;;;;;23.72;36.43;101696.47;7981421;28;20048;-69
2021/06/08 15:34:22;;;;;;;12.75;9.25;;;;;;;23.64;36.73;101691.06;7971071;28;20040;-68
2021/06/08 15:38:12;;;;;;;13.88;10.50;;;;;;;23.61;36.80;101703.97;7972664;28;20049;-68
2021/06/08 15:42:03;;;;;;;12.60;9.63;;;;;;;23.56;36.63;101692.91;7972409;28;20083;-68
2021/06/08 15:45:54;;;;;;;11.52;9.23;;;;;;;23.51;36.56;101698.75;7974285;28;21200;-68
2021/06/08 15:49:45;;;;;;;14.10;9.70;;;;;;;23.49;36.62;101697.25;7969318;28;20043;-68
2021/06/08 15:53:35;;;;;;;11.05;8.65;;;;;;;23.45;36.88;101692.19;7972938;28;20032;-67
2021/06/08 15:57:26;;;;;;;10.65;8.20;;;;;;;23.41;37.08;101684.66;7970571;28;20048;-68
2021/06/08 16:01:17;;;;;;;8.98;7.85;;;;;;;23.47;36.94;101692.06;7975777;28;20042;-68
2021/06/08 16:05:09;;;;;;;11.55;7.63;;;;;;;23.46;36.57;101690.38;7974153;28;20537;-69
2021/06/08 16:09:01;;;;;;;9.90;7.28;;;;;;;23.43;36.78;101683.50;7970905;28;20033;-68
2021/06/08 16:12:51;;;;;;;10.77;7.68;;;;;;;23.40;36.91;101691.88;7975109;28;20116;-68
2021/06/08 16:16:42;;;;;;;10.65;7.93;;;;;;;23.38;36.69;101695.72;7969134;28;20490;-68
2021/06/08 16:20:33;;;;;;;9.50;7.63;;;;;;;23.34;36.78;101691.69;7969942;28;20036;-68
2021/06/08 16:24:23;;;;;;;9.30;6.78;;;;;;;23.28;36.75;101684.31;7972276;28;20033;-69
2021/06/08 16:28:14;;;;;;;8.65;6.57;;;;;;;23.26;36.65;101700.56;7995179;28;20037;-68
2021/06/08 16:32:05;;;;;;;8.80;6.18;;;;;;;23.23;36.91;101686.66;7969709;28;20533;-68
2021/06/08 16:35:56;;;;;;;10.73;6.10;;;;;;;23.20;37.08;101697.72;7973265;28;20034;-68
2021/06/08 16:39:47;;;;;;;7.63;5.97;;;;;;;23.15;37.05;101698.19;7978786;28;20039;-69
2021/06/08 16:43:38;;;;;;;7.03;6.07;;;;;;;23.11;37.16;101691.50;7973642;28;20029;-69
2021/06/08 16:47:30;;;;;;;8.65;6.60;;;;;;;23.13;36.98;101693.97;7976384;28;20037;-69
2021/06/08 16:51:36;;;;;;;9.70;6.28;;;;;;;23.15;37.05;101681.28;7980926;28;20246;-72
2021/06/08 16:55:28;;;;;;;7.88;6.68;;;;;;;23.17;36.98;101689.97;7972513;28;20408;-71
2021/06/08 16:59:19;;;;;;;8.30;6.38;;;;;;;23.11;37.08;101679.94;7969511;28;20055;-68
2021/06/08 17:03:09;;;;;;;10.02;6.20;;;;;;;23.15;37.10;101684.81;7970154;28;20041;-71
2021/06/08 17:07:00;;;;;;;9.20;5.93;;;;;;;23.18;37.26;101680.94;7968634;28;20123;-71
2021/06/08 17:10:51;;;;;;;7.95;6.25;;;;;;;23.16;36.91;101685.66;7965187;28;20487;-71
2021/06/08 17:14:41;;;;;;;7.15;5.10;;;;;;;23.12;37.03;101676.25;7967882;28;20041;-70
2021/06/08 17:18:32;;;;;;;5.82;5.00;;;;;;;23.09;36.67;101680.09;7967870;28;20043;-71
2021/06/08 17:22:23;;;;;;;9.23;5.65;;;;;;;23.07;36.80;101681.22;7967233;28;20045;-71
2021/06/08 17:26:13;;;;;;;6.60;5.75;;;;;;;22.99;36.93;101674.00;7980998;28;20573;-71
2021/06/08 17:30:06;;;;;;;6.90;5.22;;;;;;;23.00;36.55;101673.81;7971211;28;20034;-72
2021/06/08 17:33:57;;;;;;;5.65;4.50;;;;;;;22.97;36.59;101684.03;7971466;28;20500;-69
2021/06/08 17:37:47;;;;;;;6.80;4.72;;;;;;;22.93;36.73;101678.16;7976259;28;20045;-72
2021/06/08 17:41:39;;;;;;;5.32;4.38;;;;;;;22.84;36.79;101672.94;7974326;28;20076;-71
2021/06/08 17:45:30;;;;;;;4.80;4.07;;;;;;;22.86;36.79;101682.50;7973083;28;20033;-70
2021/06/08 17:49:20;;;;;;;7.35;4.57;;;;;;;22.83;37.10;101682.00;7972215;28;20040;-70
2021/06/08 17:53:12;;;;;;;5.20;4.30;;;;;;;22.80;37.38;101682.31;7976198;28;20029;-69
2021/06/08 17:57:03;;;;;;;4.90;4.10;;;;;;;22.76;37.36;101680.94;7978696;28;20690;-71
2021/06/08 18:00:53;;;;;;;5.45;4.47;;;;;;;22.71;37.55;101681.44;7974389;28;20432;-70
2021/06/08 18:04:44;;;;;;;5.13;3.88;;;;;;;22.68;37.47;101681.75;7954899;28;20759;-70